High Bentham, United Kingdom
Current Conditions -  °F | °C
As of 6:50 PM on Wednesday 17 Dec 2014 (Local Time) from EGNO Reporting Station
Overcast Overcast  
Wind Chill: 50°   Ceiling: 900
Heat Index: 50°   Visibility: 6mi
Dew Point: 50°   Wind: 14mph
Humidity: 100%   Direction: 250°WSW
Pressure: 29.62"   Gusts: NA
Location:  54.12°N, 2.51°W
Report Text: EGNO 171850Z 25012KT 9999 BKN009 OVC013 10/10 Q1003
Loading
Personal Weather Stations






























Interactive Weather Map New forecast layout! Learn more

10-Day Weather Forecast

Advertisements
Track Severe Weather on mobile